Time;durP1;ratioP1;P1;durP2;ratioP2;P2;SDS_P1;SDS_P2;PMS_P1;PMS_P2;Temp;Humidity;BMP_temperature;BMP_pressure;BME280_temperature;BME280_humidity;BME280_pressure;Samples;Min_cycle;Max_cycle;Signal;HPM_P1;HPM_P2
2022/06/20 00:01:17;;;;;;;7.40;3.93;;;19.40;99.90;;;;;;5054353;28;20203;-78
2022/06/20 00:03:48;;;;;;;5.57;3.20;;;19.40;99.90;;;;;;5035248;28;20207;-78
2022/06/20 00:06:19;;;;;;;4.60;3.30;;;19.40;99.90;;;;;;5058365;28;20184;-78
2022/06/20 00:08:47;;;;;;;4.53;3.27;;;19.30;99.90;;;;;;5041338;28;20278;-78
2022/06/20 00:11:17;;;;;;;3.70;2.83;;;19.20;99.90;;;;;;5042232;28;20275;-78
2022/06/20 00:13:48;;;;;;;4.77;3.20;;;19.30;99.90;;;;;;5040597;28;20195;-77
2022/06/20 00:16:18;;;;;;;6.37;3.37;;;19.30;99.90;;;;;;5027506;28;20290;-78
2022/06/20 00:18:46;;;;;;;4.27;3.30;;;19.30;99.90;;;;;;5037464;28;20196;-78
2022/06/20 00:21:16;;;;;;;4.43;3.10;;;19.30;99.90;;;;;;5035277;28;20226;-79
2022/06/20 00:23:43;;;;;;;4.07;3.20;;;19.30;99.90;;;;;;5033243;28;20219;-78
2022/06/20 00:26:10;;;;;;;4.57;3.60;;;19.20;99.90;;;;;;5052511;28;20191;-78
2022/06/20 00:28:37;;;;;;;5.13;3.40;;;19.20;99.90;;;;;;5051306;28;20194;-78
2022/06/20 00:31:05;;;;;;;5.77;3.53;;;19.20;99.90;;;;;;5052226;28;20198;-77
2022/06/20 00:33:32;;;;;;;6.37;3.73;;;19.20;99.90;;;;;;5054100;28;20259;-78
2022/06/20 00:36:00;;;;;;;4.57;3.50;;;19.10;99.90;;;;;;5048392;28;20198;-78
2022/06/20 00:38:27;;;;;;;5.37;3.60;;;19.10;99.90;;;;;;5044236;28;20656;-78
2022/06/20 00:40:59;;;;;;;5.97;3.63;;;19.10;99.90;;;;;;5027453;28;20208;-78
2022/06/20 00:43:49;;;;;;;4.10;3.70;;;19.20;99.90;;;;;;5031289;28;20214;-77
2022/06/20 00:46:29;;;;;;;4.00;3.30;;;19.10;99.90;;;;;;5023119;28;20537;-78
2022/06/20 00:49:20;;;;;;;4.10;3.70;;;19.10;99.90;;;;;;5056388;28;20196;-78
2022/06/20 00:51:56;;;;;;;3.87;3.47;;;19.10;99.90;;;;;;5054149;28;20730;-78
2022/06/20 00:55:00;;;;;;;4.30;3.67;;;19.10;99.90;;;;;;5041797;28;20339;-78
2022/06/20 00:57:52;;;;;;;4.63;3.60;;;19.10;99.90;;;;;;5038545;28;20207;-78
2022/06/20 01:00:28;;;;;;;5.67;3.90;;;19.10;99.90;;;;;;5051118;28;20234;-78
2022/06/20 01:03:13;;;;;;;5.03;3.60;;;19.10;99.90;;;;;;5034044;28;20195;-77
2022/06/20 01:05:58;;;;;;;4.63;3.80;;;19.10;99.90;;;;;;5027576;28;20274;-77
2022/06/20 01:08:49;;;;;;;4.43;3.43;;;19.00;99.90;;;;;;5055949;28;20952;-78
2022/06/20 01:11:36;;;;;;;3.70;3.20;;;19.00;99.90;;;;;;5029962;28;20191;-79
2022/06/20 01:14:37;;;;;;;5.70;3.77;;;19.00;99.90;;;;;;5026177;28;20540;-77
2022/06/20 01:17:19;;;;;;;5.23;3.50;;;19.00;99.90;;;;;;5046121;28;20287;-78
2022/06/20 01:20:01;;;;;;;4.37;3.60;;;19.00;99.90;;;;;;5051183;28;20306;-77
2022/06/20 01:22:46;;;;;;;4.30;3.50;;;19.00;99.90;;;;;;5037355;28;20192;-78
2022/06/20 01:26:07;;;;;;;6.37;3.37;;;19.10;99.90;;;;;;5049395;28;20551;-78
2022/06/20 01:28:41;;;;;;;5.90;3.30;;;19.10;99.90;;;;;;5013262;28;20196;-78
2022/06/20 01:31:10;;;;;;;4.37;3.40;;;19.10;99.90;;;;;;5030111;28;20226;-78
2022/06/20 01:33:38;;;;;;;5.20;3.30;;;19.10;99.90;;;;;;5050358;28;20208;-77
2022/06/20 01:38:50;;;;;;;4.97;3.57;;;19.10;99.90;;;;;;5040730;28;20658;-77
2022/06/20 01:44:06;;;;;;;4.20;3.20;;;19.00;99.90;;;;;;5040027;28;20294;-78
2022/06/20 01:46:35;;;;;;;4.83;3.40;;;19.00;99.90;;;;;;5054633;28;20248;-77
2022/06/20 01:49:12;;;;;;;3.70;2.87;;;19.00;99.90;;;;;;5052461;28;20749;-78
2022/06/20 01:52:16;;;;;;;5.27;3.10;;;19.00;99.90;;;;;;5030761;28;20249;-77
2022/06/20 01:54:54;;;;;;;3.43;3.00;;;19.00;99.90;;;;;;5026510;28;20719;-77
2022/06/20 01:57:26;;;;;;;3.33;3.00;;;18.90;99.90;;;;;;5053019;28;20195;-78
2022/06/20 02:00:19;;;;;;;4.13;2.97;;;18.90;99.90;;;;;;5048259;28;20249;-78
2022/06/20 02:02:59;;;;;;;6.80;3.17;;;18.90;99.90;;;;;;5032550;28;20196;-77
2022/06/20 02:05:29;;;;;;;4.00;3.20;;;18.80;99.90;;;;;;5035527;28;20186;-78
2022/06/20 02:08:06;;;;;;;5.27;3.30;;;18.70;99.90;;;;;;5035709;28;20217;-78
2022/06/20 02:11:08;;;;;;;5.43;2.90;;;18.70;99.90;;;;;;5057691;28;20269;-78
2022/06/20 02:13:49;;;;;;;4.40;3.37;;;18.70;99.90;;;;;;5058778;28;20187;-77
2022/06/20 02:16:19;;;;;;;4.07;2.87;;;18.60;99.90;;;;;;5052090;28;20202;-78
2022/06/20 02:18:51;;;;;;;4.90;3.20;;;18.60;99.90;;;;;;5047261;28;20195;-78
2022/06/20 02:21:26;;;;;;;3.30;3.00;;;18.70;99.90;;;;;;5034367;28;20215;-77
2022/06/20 02:24:03;;;;;;;5.43;3.13;;;18.70;99.90;;;;;;5023292;28;20655;-78
2022/06/20 02:26:32;;;;;;;7.03;3.20;;;18.80;99.90;;;;;;5032202;28;20183;-78
2022/06/20 02:29:22;;;;;;;3.10;2.80;;;18.80;99.90;;;;;;5041333;28;20179;-78
2022/06/20 02:32:21;;;;;;;3.77;2.80;;;18.80;99.90;;;;;;5045831;28;20184;-77
2022/06/20 02:34:48;;;;;;;3.73;2.60;;;18.60;99.90;;;;;;5052019;28;20704;-77
2022/06/20 02:37:26;;;;;;;4.53;2.80;;;18.50;99.90;;;;;;5030301;28;20522;-78
2022/06/20 02:40:02;;;;;;;2.87;2.50;;;18.50;99.90;;;;;;5038956;28;20717;-78
2022/06/20 02:42:44;;;;;;;2.30;2.10;;;18.50;99.90;;;;;;5033695;28;20705;-78
2022/06/20 02:45:12;;;;;;;3.20;2.30;;;18.50;99.90;;;;;;5042247;28;20191;-78
2022/06/20 02:47:54;;;;;;;3.93;2.50;;;18.50;99.90;;;;;;5035838;28;20198;-78
2022/06/20 02:50:27;;;;;;;2.50;2.00;;;18.50;99.90;;;;;;5052699;28;20187;-78
2022/06/20 02:53:03;;;;;;;3.37;2.20;;;18.50;99.90;;;;;;5031091;28;20195;-78
2022/06/20 02:55:34;;;;;;;2.80;2.33;;;18.60;99.90;;;;;;5043049;28;20188;-78
2022/06/20 02:58:17;;;;;;;2.57;2.07;;;18.70;99.90;;;;;;5041408;28;20206;-78
2022/06/20 03:00:52;;;;;;;2.30;2.03;;;18.70;99.90;;;;;;5030338;28;20203;-78
2022/06/20 03:03:34;;;;;;;10.57;2.33;;;18.80;99.90;;;;;;5047558;28;20946;-78
2022/06/20 03:06:09;;;;;;;2.63;1.90;;;18.80;99.90;;;;;;5039749;28;20238;-78
2022/06/20 03:08:36;;;;;;;3.60;2.20;;;18.90;99.90;;;;;;5051395;28;20202;-77
2022/06/20 03:11:05;;;;;;;2.77;2.00;;;18.90;99.90;;;;;;5033835;28;20204;-78
2022/06/20 03:13:36;;;;;;;2.90;1.87;;;18.90;99.90;;;;;;5050785;28;20184;-78
2022/06/20 03:16:05;;;;;;;2.27;1.97;;;18.90;99.90;;;;;;5046086;28;20191;-77
2022/06/20 03:18:42;;;;;;;4.07;1.90;;;18.90;99.90;;;;;;5041103;28;20245;-78
2022/06/20 03:21:12;;;;;;;2.20;1.80;;;18.90;99.90;;;;;;5046820;28;20334;-78
2022/06/20 03:23:38;;;;;;;3.17;1.90;;;18.90;99.90;;;;;;5014272;28;20667;-78
2022/06/20 03:26:13;;;;;;;2.97;1.87;;;18.90;99.90;;;;;;5017734;28;20215;-78
2022/06/20 03:28:40;;;;;;;2.10;1.90;;;18.90;99.90;;;;;;5040782;28;20286;-78
2022/06/20 03:31:10;;;;;;;3.30;2.07;;;18.90;99.90;;;;;;5039049;28;20242;-77
2022/06/20 03:33:38;;;;;;;2.30;1.73;;;18.90;99.90;;;;;;5024848;28;20204;-77
2022/06/20 03:36:13;;;;;;;4.00;1.90;;;18.90;99.90;;;;;;5015044;28;20195;-78
2022/06/20 03:38:43;;;;;;;2.47;1.50;;;18.90;99.90;;;;;;5059355;28;20494;-78
2022/06/20 03:41:14;;;;;;;3.50;1.57;;;18.90;99.90;;;;;;5048601;28;20207;-78
2022/06/20 03:43:47;;;;;;;2.17;1.60;;;18.90;99.90;;;;;;5035074;28;20191;-78
2022/06/20 03:46:35;;;;;;;2.50;1.57;;;18.90;99.90;;;;;;5029431;28;20184;-78
2022/06/20 03:49:20;;;;;;;2.50;1.60;;;19.00;99.90;;;;;;5037516;28;20200;-77
2022/06/20 03:51:58;;;;;;;2.03;1.70;;;19.00;99.90;;;;;;5038378;28;20184;-77
2022/06/20 03:54:57;;;;;;;5.23;2.07;;;19.00;99.90;;;;;;5047430;28;20217;-78
2022/06/20 03:58:20;;;;;;;2.10;1.90;;;19.00;99.90;;;;;;5032391;28;20176;-78
2022/06/20 04:01:26;;;;;;;3.30;2.23;;;19.10;99.90;;;;;;5008607;28;20223;-78
2022/06/20 04:04:11;;;;;;;2.93;2.30;;;19.10;99.90;;;;;;5012549;28;20195;-78
2022/06/20 04:06:50;;;;;;;3.80;2.43;;;19.20;99.90;;;;;;5047475;28;20183;-78
2022/06/20 04:12:44;;;;;;;6.50;2.73;;;19.40;99.90;;;;;;5063611;28;20184;-78
2022/06/20 04:15:27;;;;;;;4.40;2.40;;;19.60;99.90;;;;;;5041091;28;20627;-78
2022/06/20 04:18:28;;;;;;;2.63;2.17;;;19.60;99.90;;;;;;5044145;28;20196;-79
2022/06/20 04:21:23;;;;;;;2.73;2.43;;;19.70;99.90;;;;;;5040624;28;20215;-79
2022/06/20 04:24:25;;;;;;;4.90;2.63;;;19.70;99.90;;;;;;5041287;28;20649;-77
2022/06/20 04:27:17;;;;;;;4.07;2.60;;;19.70;99.90;;;;;;5048410;28;20186;-77
2022/06/20 04:29:53;;;;;;;3.77;2.53;;;19.80;99.90;;;;;;5013123;28;20198;-77
2022/06/20 04:32:50;;;;;;;4.87;2.50;;;19.80;99.90;;;;;;5029423;28;20202;-78
2022/06/20 04:35:29;;;;;;;3.67;2.70;;;19.90;99.90;;;;;;5043790;28;20191;-78
2022/06/20 04:38:24;;;;;;;3.93;2.33;;;19.90;99.90;;;;;;5040877;28;20195;-78
2022/06/20 04:41:05;;;;;;;4.53;2.60;;;20.00;99.90;;;;;;5048974;28;20231;-78
2022/06/20 04:43:59;;;;;;;4.77;2.60;;;20.10;99.90;;;;;;5029034;28;20192;-78
2022/06/20 04:46:35;;;;;;;5.80;2.50;;;20.10;99.90;;;;;;5034785;28;20195;-78
2022/06/20 04:49:02;;;;;;;3.27;2.47;;;20.20;99.90;;;;;;5023624;28;21086;-78
2022/06/20 04:51:36;;;;;;;3.47;2.50;;;20.20;99.90;;;;;;5030944;28;20198;-78
2022/06/20 04:54:08;;;;;;;3.10;2.70;;;20.20;99.90;;;;;;5052485;28;20260;-78
2022/06/20 04:56:36;;;;;;;3.67;2.93;;;20.30;99.90;;;;;;5017895;28;20183;-78
2022/06/20 04:59:11;;;;;;;4.13;3.53;;;20.40;99.90;;;;;;5045338;28;20208;-78
2022/06/20 05:01:39;;;;;;;5.67;3.53;;;20.40;99.90;;;;;;5042775;28;20253;-78
2022/06/20 05:04:33;;;;;;;4.57;3.77;;;20.50;99.90;;;;;;5031631;28;20192;-78
2022/06/20 05:07:06;;;;;;;4.00;3.60;;;20.60;99.90;;;;;;5048061;28;20215;-79
2022/06/20 05:10:01;;;;;;;4.07;3.67;;;20.70;99.90;;;;;;5039459;28;20587;-77
2022/06/20 05:12:52;;;;;;;6.10;4.00;;;20.80;99.90;;;;;;5039877;28;20191;-78
2022/06/20 05:15:38;;;;;;;7.40;4.13;;;20.70;99.90;;;;;;5040758;28;20196;-78
2022/06/20 05:18:37;;;;;;;7.43;4.20;;;20.90;99.90;;;;;;5053936;28;20556;-78
2022/06/20 05:21:25;;;;;;;5.70;3.83;;;21.00;99.90;;;;;;5044089;28;20215;-78
2022/06/20 05:23:58;;;;;;;5.30;3.67;;;21.00;99.90;;;;;;5042119;28;20183;-78
2022/06/20 05:26:33;;;;;;;6.70;4.00;;;21.10;99.90;;;;;;5038926;28;20856;-78
2022/06/20 05:29:09;;;;;;;4.72;4.10;;;21.20;99.90;;;;;;5023684;28;20191;-78
2022/06/20 05:31:43;;;;;;;8.77;4.17;;;21.30;99.90;;;;;;5048995;28;20201;-78
2022/06/20 05:34:21;;;;;;;5.97;4.13;;;21.30;99.90;;;;;;5044852;28;20277;-78
2022/06/20 05:36:54;;;;;;;6.37;4.30;;;21.40;99.90;;;;;;5047491;28;20278;-77
2022/06/20 05:39:47;;;;;;;6.87;4.07;;;21.60;99.90;;;;;;5039449;28;20576;-78
2022/06/20 05:42:18;;;;;;;6.97;4.37;;;21.90;99.90;;;;;;5025656;28;20556;-78
2022/06/20 05:44:47;;;;;;;8.87;4.87;;;21.90;99.90;;;;;;5046130;28;20675;-78
2022/06/20 05:47:35;;;;;;;5.90;3.87;;;21.90;99.90;;;;;;5030554;28;20189;-79
2022/06/20 05:50:53;;;;;;;8.73;4.30;;;22.10;99.90;;;;;;5046497;28;20302;-78
2022/06/20 05:53:33;;;;;;;9.03;4.63;;;22.10;99.90;;;;;;5029550;28;20188;-78
2022/06/20 05:56:05;;;;;;;7.57;4.68;;;22.30;99.90;;;;;;5039507;28;20191;-79
2022/06/20 05:58:37;;;;;;;9.93;4.70;;;22.40;99.90;;;;;;5033649;28;20200;-78
2022/06/20 06:01:14;;;;;;;6.70;4.53;;;22.40;99.90;;;;;;5039509;28;20675;-78
2022/06/20 06:04:16;;;;;;;8.23;4.23;;;22.40;99.90;;;;;;5048887;28;20198;-78
2022/06/20 06:07:13;;;;;;;9.20;4.57;;;22.60;99.90;;;;;;5035728;28;20241;-79
2022/06/20 06:10:02;;;;;;;6.85;4.63;;;22.70;99.90;;;;;;5033011;28;20209;-79
2022/06/20 06:12:45;;;;;;;7.23;4.10;;;22.80;99.90;;;;;;5041018;28;20313;-78
2022/06/20 06:15:24;;;;;;;9.65;4.40;;;22.90;99.90;;;;;;5027410;28;20249;-78
2022/06/20 06:17:58;;;;;;;8.60;4.10;;;22.90;99.90;;;;;;5046271;28;20203;-78
2022/06/20 06:20:31;;;;;;;6.93;4.20;;;23.00;99.90;;;;;;5041826;28;20216;-78
2022/06/20 06:23:08;;;;;;;9.37;4.30;;;23.10;99.90;;;;;;5036760;28;20280;-79
2022/06/20 06:25:43;;;;;;;10.57;3.97;;;23.30;99.90;;;;;;5041230;28;20188;-78
2022/06/20 06:28:12;;;;;;;8.30;4.38;;;23.50;99.90;;;;;;5036239;28;20223;-78
2022/06/20 06:31:04;;;;;;;9.73;4.07;;;23.50;99.90;;;;;;5053716;28;20195;-78
2022/06/20 06:34:22;;;;;;;8.43;4.22;;;23.50;99.90;;;;;;5048614;28;20230;-78
2022/06/20 06:37:01;;;;;;;9.43;4.45;;;23.70;99.90;;;;;;5045396;28;20197;-79
2022/06/20 06:39:46;;;;;;;8.45;4.30;;;24.10;99.90;;;;;;5025340;28;20199;-78
2022/06/20 06:42:17;;;;;;;10.98;4.38;;;24.20;99.90;;;;;;5032233;28;20184;-78
2022/06/20 06:44:53;;;;;;;8.77;3.92;;;24.10;99.90;;;;;;5053699;28;20637;-78
2022/06/20 06:47:40;;;;;;;6.30;4.10;;;24.30;99.90;;;;;;5039832;28;20195;-78
2022/06/20 06:50:34;;;;;;;8.40;4.70;;;24.40;99.90;;;;;;5046293;28;20185;-78
2022/06/20 06:53:15;;;;;;;10.63;4.88;;;24.50;99.90;;;;;;5049968;28;20298;-79
2022/06/20 06:55:50;;;;;;;10.10;4.50;;;24.70;99.90;;;;;;5034098;28;20192;-79
2022/06/20 06:58:39;;;;;;;9.63;4.60;;;24.90;99.90;;;;;;5049513;28;20199;-78
2022/06/20 07:01:21;;;;;;;10.35;4.28;;;25.20;99.90;;;;;;5042818;28;20222;-78
2022/06/20 07:04:18;;;;;;;8.82;4.63;;;25.40;99.90;;;;;;5030965;28;20191;-79
2022/06/20 07:07:36;;;;;;;11.05;4.60;;;25.40;99.90;;;;;;5028581;28;20188;-79
2022/06/20 07:10:10;;;;;;;11.60;4.72;;;25.30;99.90;;;;;;5047968;28;20262;-79
2022/06/20 07:12:52;;;;;;;10.63;4.75;;;25.40;99.90;;;;;;5048299;28;20813;-78
2022/06/20 07:15:26;;;;;;;16.17;5.25;;;25.60;99.90;;;;;;5046431;28;20195;-79
2022/06/20 07:18:03;;;;;;;10.20;4.63;;;25.50;99.90;;;;;;5028370;28;20338;-80
2022/06/20 07:20:38;;;;;;;8.70;4.38;;;25.40;99.90;;;;;;5031831;28;20229;-79
2022/06/20 07:23:17;;;;;;;11.05;4.88;;;25.70;99.90;;;;;;5026337;28;20217;-79
2022/06/20 07:25:50;;;;;;;8.80;4.97;;;25.80;99.90;;;;;;5050520;28;20178;-79
2022/06/20 07:28:53;;;;;;;10.10;4.80;;;26.00;99.90;;;;;;5041204;28;20275;-79
2022/06/20 07:31:47;;;;;;;10.55;5.05;;;26.00;99.90;;;;;;5045700;28;20314;-79
2022/06/20 07:34:50;;;;;;;13.88;4.95;;;26.10;99.90;;;;;;5025729;28;20560;-79
2022/06/20 07:37:31;;;;;;;10.50;5.35;;;26.20;99.90;;;;;;5036710;28;20627;-79
2022/06/20 07:40:09;;;;;;;8.20;4.78;;;26.20;99.90;;;;;;5020152;28;20203;-79
2022/06/20 07:42:46;;;;;;;13.80;5.13;;;26.30;99.90;;;;;;5049481;28;20278;-79
2022/06/20 07:45:39;;;;;;;8.85;5.00;;;26.40;99.90;;;;;;5027410;28;20739;-79
2022/06/20 07:48:31;;;;;;;7.00;4.40;;;26.30;99.90;;;;;;5059987;28;20895;-79
2022/06/20 07:51:19;;;;;;;14.68;5.50;;;26.40;99.90;;;;;;5040707;28;20278;-80
2022/06/20 07:54:27;;;;;;;15.48;5.85;;;26.60;99.90;;;;;;5051323;28;20192;-77
2022/06/20 07:57:13;;;;;;;10.73;5.13;;;26.70;99.90;;;;;;5024516;28;20195;-80
2022/06/20 08:00:04;;;;;;;11.20;5.60;;;26.80;99.90;;;;;;5029508;28;20576;-80
2022/06/20 08:03:12;;;;;;;11.20;5.18;;;26.80;99.90;;;;;;5021008;28;20183;-79
2022/06/20 08:05:46;;;;;;;10.02;5.50;;;26.70;99.90;;;;;;5025971;28;20195;-80
2022/06/20 08:08:34;;;;;;;11.05;6.43;;;26.80;99.90;;;;;;5025397;28;20172;-80
2022/06/20 08:11:41;;;;;;;13.43;6.18;;;27.10;99.90;;;;;;5029928;28;20199;-80
2022/06/20 08:14:56;;;;;;;13.75;5.90;;;27.20;99.90;;;;;;5042882;28;20289;-80
2022/06/20 08:17:24;;;;;;;11.20;6.00;;;27.30;99.90;;;;;;5006351;28;20188;-80
2022/06/20 08:19:51;;;;;;;12.10;5.85;;;27.30;99.90;;;;;;5015637;28;20207;-80
2022/06/20 08:22:43;;;;;;;16.33;6.95;;;27.40;99.90;;;;;;5026230;28;20192;-80
2022/06/20 08:25:39;;;;;;;10.68;6.20;;;27.60;99.90;;;;;;5032629;28;20787;-80
2022/06/20 08:28:18;;;;;;;12.18;6.03;;;27.60;99.90;;;;;;5027580;28;20226;-79
2022/06/20 08:31:22;;;;;;;8.63;5.63;;;27.70;99.90;;;;;;5030557;28;20188;-79
2022/06/20 08:34:19;;;;;;;13.43;7.07;;;27.80;99.90;;;;;;5023398;28;20223;-80
2022/06/20 08:36:57;;;;;;;17.65;8.45;;;27.90;99.90;;;;;;5027307;28;20644;-79
2022/06/20 08:39:45;;;;;;;15.93;7.97;;;27.90;99.90;;;;;;5030941;28;20187;-80
2022/06/20 08:42:48;;;;;;;15.77;8.27;;;28.00;99.90;;;;;;5043172;28;20238;-79
2022/06/20 08:45:50;;;;;;;19.40;8.40;;;28.00;99.90;;;;;;5039533;28;20240;-80
2022/06/20 08:49:03;;;;;;;15.65;8.88;;;28.10;99.90;;;;;;5027244;28;20187;-79
2022/06/20 08:52:06;;;;;;;13.40;8.80;;;28.20;99.90;;;;;;5031749;28;20819;-80
2022/06/20 08:54:59;;;;;;;15.85;8.82;;;28.20;99.90;;;;;;5029777;28;20233;-79
2022/06/20 08:58:05;;;;;;;17.33;8.10;;;28.30;99.90;;;;;;5067288;28;20167;-80
2022/06/20 09:00:51;;;;;;;13.82;8.27;;;28.40;99.90;;;;;;5038123;28;20302;-80
2022/06/20 09:03:55;;;;;;;15.73;8.50;;;28.50;99.90;;;;;;5054497;28;20213;-79
2022/06/20 09:06:31;;;;;;;12.32;8.15;;;28.60;99.90;;;;;;5051514;28;20225;-79
2022/06/20 09:09:58;;;;;;;13.90;7.97;;;28.70;99.90;;;;;;5035537;28;20245;-79
2022/06/20 09:12:48;;;;;;;14.85;8.70;;;28.70;99.90;;;;;;5023262;28;20613;-79
2022/06/20 09:15:39;;;;;;;17.38;9.50;;;28.80;99.90;;;;;;5016619;28;20194;-79
2022/06/20 09:18:29;;;;;;;15.50;8.15;;;28.90;99.90;;;;;;5034140;28;20190;-80
2022/06/20 09:21:36;;;;;;;15.27;8.00;;;29.20;99.90;;;;;;5020104;28;20216;-79
2022/06/20 09:25:02;;;;;;;10.77;8.15;;;29.30;99.90;;;;;;5037580;28;20202;-79
2022/06/20 09:28:30;;;;;;;14.82;8.35;;;29.40;99.90;;;;;;5035960;28;20199;-83
2022/06/20 09:35:00;;;;;;;15.45;7.38;;;29.90;99.90;;;;;;5067222;28;20223;-83
2022/06/20 09:38:15;;;;;;;15.75;7.18;;;29.90;99.90;;;;;;5033997;28;20526;-84
2022/06/20 09:41:15;;;;;;;12.63;6.95;;;30.10;99.90;;;;;;5045708;28;20219;-84
2022/06/20 09:44:10;;;;;;;10.25;6.68;;;30.10;99.90;;;;;;5050415;28;20181;-84
2022/06/20 09:47:05;;;;;;;16.30;7.85;;;30.20;99.90;;;;;;5032539;28;20242;-83
2022/06/20 09:50:21;;;;;;;11.57;6.47;;;30.20;99.90;;;;;;5062260;28;20219;-84
2022/06/20 09:53:19;;;;;;;10.82;6.43;;;30.20;99.90;;;;;;5033192;28;20172;-83
2022/06/20 09:56:48;;;;;;;8.70;6.15;;;30.40;99.90;;;;;;5048909;28;20188;-83
2022/06/20 09:59:51;;;;;;;13.15;6.25;;;30.50;99.90;;;;;;5033125;28;20191;-83
2022/06/20 10:02:49;;;;;;;11.07;5.57;;;30.50;99.90;;;;;;5046274;28;20192;-83
2022/06/20 10:05:57;;;;;;;6.45;4.80;;;30.50;99.90;;;;;;5053939;28;20197;-84
2022/06/20 10:08:49;;;;;;;10.38;4.80;;;30.60;99.90;;;;;;5018515;28;20184;-82
2022/06/20 10:11:34;;;;;;;6.95;4.30;;;30.70;99.90;;;;;;5045530;28;20176;-83
2022/06/20 10:14:40;;;;;;;7.38;4.47;;;30.80;99.90;;;;;;5017265;28;20192;-83
2022/06/20 10:17:49;;;;;;;5.57;3.60;;;30.90;99.90;;;;;;5021188;28;20191;-82
2022/06/20 10:20:58;;;;;;;9.52;4.10;;;30.80;99.90;;;;;;5032810;28;20206;-84
2022/06/20 10:24:16;;;;;;;9.35;4.28;;;30.60;99.90;;;;;;5033761;28;20719;-83
2022/06/20 10:27:54;;;;;;;8.50;3.60;;;30.70;99.90;;;;;;5032989;28;20187;-84
2022/06/20 10:30:43;;;;;;;7.25;3.30;;;31.00;99.90;;;;;;5014888;28;20188;-83
2022/06/20 10:34:04;;;;;;;7.28;3.20;;;30.90;99.90;;;;;;5025375;28;20210;-83
2022/06/20 10:37:20;;;;;;;6.22;3.70;;;30.90;99.90;;;;;;4997785;28;20239;-83
2022/06/20 10:40:01;;;;;;;5.80;3.20;;;30.80;99.90;;;;;;5014569;28;20212;-83
2022/06/20 10:43:01;;;;;;;8.85;4.13;;;30.60;99.90;;;;;;5032266;28;20180;-83
2022/06/20 10:45:58;;;;;;;14.57;4.25;;;30.60;99.90;;;;;;5016038;28;20537;-84
2022/06/20 10:48:46;;;;;;;7.68;2.95;;;30.70;99.90;;;;;;5037603;28;20691;-84
2022/06/20 10:51:54;;;;;;;6.97;3.78;;;30.90;99.90;;;;;;5033548;28;20191;-83
2022/06/20 10:54:53;;;;;;;7.85;3.90;;;30.60;99.90;;;;;;5041667;28;20591;-83
2022/06/20 10:58:08;;;;;;;7.68;3.75;;;30.60;99.90;;;;;;5052046;28;20274;-83
2022/06/20 11:00:48;;;;;;;7.47;4.15;;;30.60;99.90;;;;;;5036208;28;20196;-84
2022/06/20 11:03:56;;;;;;;6.45;4.15;;;30.70;99.90;;;;;;5045259;28;20674;-83
2022/06/20 11:06:44;;;;;;;11.23;4.07;;;30.60;99.90;;;;;;5043169;28;20188;-84
2022/06/20 11:09:49;;;;;;;12.48;4.43;;;30.50;99.90;;;;;;5031550;28;20197;-83
2022/06/20 11:16:48;;;;;;;11.18;4.50;;;30.10;99.90;;;;;;5058609;28;20183;-84
2022/06/20 11:19:55;;;;;;;5.70;3.55;;;30.10;99.90;;;;;;5060679;28;20187;-84
2022/06/20 11:22:44;;;;;;;10.80;3.78;;;30.20;99.90;;;;;;5035920;28;20183;-84
2022/06/20 11:25:43;;;;;;;5.97;3.22;;;30.00;99.90;;;;;;5050010;28;20223;-83
2022/06/20 11:28:53;;;;;;;10.07;3.70;;;30.00;99.90;;;;;;5054848;28;20196;-85
2022/06/20 11:31:34;;;;;;;9.27;3.63;;;29.90;99.90;;;;;;5030926;28;20581;-83
2022/06/20 11:34:56;;;;;;;7.40;3.45;;;30.00;99.90;;;;;;5031582;28;21003;-83
2022/06/20 11:37:37;;;;;;;6.60;3.58;;;29.90;99.90;;;;;;5038047;28;20188;-84
2022/06/20 11:41:00;;;;;;;5.80;3.10;;;29.80;99.90;;;;;;5030795;28;20227;-83
2022/06/20 11:44:26;;;;;;;7.65;3.85;;;29.70;99.90;;;;;;5032778;28;20818;-85
2022/06/20 11:47:27;;;;;;;8.75;3.15;;;29.70;99.90;;;;;;5018352;28;20196;-84
2022/06/20 11:50:21;;;;;;;16.38;3.55;;;29.80;99.90;;;;;;5048518;28;20214;-82
2022/06/20 11:53:28;;;;;;;6.97;3.50;;;29.90;99.90;;;;;;5033466;28;20210;-84
2022/06/20 11:56:32;;;;;;;6.22;3.72;;;30.10;99.90;;;;;;5014217;28;20215;-83
2022/06/20 11:59:26;;;;;;;11.60;3.40;;;30.10;99.90;;;;;;5033605;28;20257;-83
2022/06/20 12:02:42;;;;;;;8.32;3.13;;;29.70;99.90;;;;;;5047234;28;20222;-84
2022/06/20 12:05:54;;;;;;;9.82;3.58;;;29.70;99.90;;;;;;5014340;28;20206;-83
2022/06/20 12:08:29;;;;;;;13.00;3.85;;;29.60;99.90;;;;;;5054129;28;20226;-85
2022/06/20 12:11:05;;;;;;;9.18;3.60;;;29.60;99.90;;;;;;5036981;28;20186;-84
2022/06/20 12:14:13;;;;;;;4.88;3.17;;;29.70;99.90;;;;;;5020835;28;20180;-83
2022/06/20 12:17:09;;;;;;;5.68;3.50;;;29.80;99.90;;;;;;5014362;28;20635;-83
2022/06/20 12:23:25;;;;;;;10.18;4.13;;;29.70;99.90;;;;;;5046281;28;20184;-83
2022/06/20 12:26:00;;;;;;;8.00;3.35;;;30.00;99.90;;;;;;5034546;28;20184;-84
2022/06/20 12:28:35;;;;;;;10.95;3.47;;;29.60;99.90;;;;;;5048905;28;20270;-83
2022/06/20 12:31:44;;;;;;;18.70;3.88;;;29.70;99.90;;;;;;5065753;28;20186;-83
2022/06/20 12:34:29;;;;;;;7.45;3.25;;;29.80;99.90;;;;;;5030488;28;20205;-83
2022/06/20 12:37:38;;;;;;;6.15;3.33;;;29.80;99.90;;;;;;5034465;28;20218;-83
2022/06/20 12:40:44;;;;;;;5.82;3.33;;;29.80;99.90;;;;;;5024978;28;20583;-82
2022/06/20 12:43:23;;;;;;;5.07;3.30;;;29.50;99.90;;;;;;5033332;28;20195;-83
2022/06/20 12:46:09;;;;;;;8.95;3.67;;;29.50;99.90;;;;;;5042710;28;20223;-84
2022/06/20 12:49:15;;;;;;;6.43;3.30;;;29.50;99.90;;;;;;5040512;28;20668;-82
2022/06/20 12:52:00;;;;;;;4.85;3.10;;;29.50;99.90;;;;;;5033486;28;20172;-83
2022/06/20 12:54:47;;;;;;;4.80;2.85;;;29.60;99.90;;;;;;5046765;28;20172;-83
2022/06/20 12:57:43;;;;;;;9.90;3.38;;;29.50;99.90;;;;;;5019761;28;20198;-83
2022/06/20 13:00:55;;;;;;;7.57;3.30;;;29.50;99.90;;;;;;5040328;28;20246;-83
2022/06/20 13:04:24;;;;;;;6.32;3.47;;;29.40;99.90;;;;;;5017250;28;20211;-83
2022/06/20 13:07:08;;;;;;;6.97;3.20;;;29.30;99.90;;;;;;5032863;28;20176;-83
2022/06/20 13:09:38;;;;;;;6.13;3.33;;;29.40;99.90;;;;;;5050221;28;20180;-83
2022/06/20 13:12:52;;;;;;;6.43;3.53;;;29.50;99.90;;;;;;5049534;28;20820;-83
2022/06/20 13:15:51;;;;;;;6.75;3.30;;;29.40;99.90;;;;;;5018158;28;20806;-87
2022/06/20 13:18:57;;;;;;;8.63;3.60;;;29.50;99.90;;;;;;5029718;28;20180;-84
2022/06/20 13:21:57;;;;;;;8.73;3.78;;;29.40;99.90;;;;;;5044769;28;20315;-82
2022/06/20 13:24:52;;;;;;;10.25;4.05;;;29.40;99.90;;;;;;5035638;28;20239;-82
2022/06/20 13:27:58;;;;;;;12.63;4.32;;;29.40;99.90;;;;;;5015860;28;20681;-83
2022/06/20 13:31:04;;;;;;;11.90;3.63;;;29.30;99.90;;;;;;5027182;28;20184;-84
2022/06/20 13:33:54;;;;;;;9.60;3.90;;;29.20;99.90;;;;;;5029385;28;20250;-83
2022/06/20 13:36:52;;;;;;;10.93;3.63;;;29.00;99.90;;;;;;5059904;28;20705;-83
2022/06/20 13:40:04;;;;;;;7.65;3.70;;;29.10;99.90;;;;;;5049324;28;20187;-83
2022/06/20 13:42:36;;;;;;;16.13;4.10;;;29.10;99.90;;;;;;5052540;28;20196;-83
2022/06/20 13:45:41;;;;;;;13.50;4.22;;;29.10;99.90;;;;;;5034077;28;20683;-83
2022/06/20 13:48:28;;;;;;;8.23;4.45;;;28.90;99.90;;;;;;5032438;28;20184;-83
2022/06/20 13:51:09;;;;;;;8.65;4.28;;;28.90;99.90;;;;;;5049371;28;20620;-82
2022/06/20 13:54:18;;;;;;;13.30;4.38;;;28.80;99.90;;;;;;5032599;28;20211;-83
2022/06/20 13:57:41;;;;;;;10.60;4.65;;;28.60;99.90;;;;;;5033691;28;20271;-83
2022/06/20 14:00:16;;;;;;;13.70;5.00;;;28.50;99.90;;;;;;5016034;28;20224;-82
2022/06/20 14:03:32;;;;;;;8.60;5.00;;;28.40;99.90;;;;;;5024209;28;20660;-83
2022/06/20 14:06:14;;;;;;;13.18;8.05;;;28.50;99.90;;;;;;5017181;28;20261;-81
2022/06/20 14:09:11;;;;;;;14.98;8.93;;;28.50;99.90;;;;;;5015898;28;20232;-82
2022/06/20 14:11:59;;;;;;;9.65;5.13;;;28.30;99.90;;;;;;5031471;28;20208;-83
2022/06/20 14:14:46;;;;;;;11.57;6.70;;;28.30;99.90;;;;;;5035462;28;20630;-82
2022/06/20 14:17:28;;;;;;;11.20;5.10;;;28.20;99.90;;;;;;5067681;28;20191;-83
2022/06/20 14:20:22;;;;;;;10.02;5.00;;;28.20;99.90;;;;;;5050841;28;20204;-83
2022/06/20 14:22:52;;;;;;;8.95;4.63;;;28.20;99.90;;;;;;5051663;28;20238;-83
2022/06/20 14:26:04;;;;;;;11.52;5.07;;;28.20;99.90;;;;;;5069364;28;20191;-82
2022/06/20 14:28:48;;;;;;;11.38;4.70;;;28.20;99.90;;;;;;5046705;28;20196;-82
2022/06/20 14:31:39;;;;;;;11.25;4.93;;;28.00;99.90;;;;;;5048849;28;20176;-83
2022/06/20 14:34:38;;;;;;;11.90;5.20;;;28.00;99.90;;;;;;5065909;28;20192;-83
2022/06/20 14:37:19;;;;;;;12.30;5.15;;;27.90;99.90;;;;;;5043819;28;20513;-83
2022/06/20 14:39:58;;;;;;;12.32;5.03;;;27.80;99.90;;;;;;5031215;28;20208;-83
2022/06/20 14:43:06;;;;;;;14.25;5.25;;;27.70;99.90;;;;;;5014878;28;20187;-82
2022/06/20 14:45:39;;;;;;;12.55;5.00;;;27.70;99.90;;;;;;5015824;28;20190;-84
2022/06/20 14:48:51;;;;;;;10.73;4.85;;;27.60;99.90;;;;;;5033439;28;20192;-82
2022/06/20 14:51:21;;;;;;;11.32;4.78;;;27.50;99.90;;;;;;5034410;28;20183;-82